sensor_id;sensor_type;location;lat;lon;timestamp;pressure;altitude;pressure_sealevel;temperature;humidity
57442;BME280;43284;47.042;15.498;2023-03-13T00:02:00;97199.00;;;-0.58;80.08
57442;BME280;43284;47.042;15.498;2023-03-13T00:04:25;97216.13;;;-0.60;78.76
57442;BME280;43284;47.042;15.498;2023-03-13T00:06:51;97210.97;;;-0.57;79.59
57442;BME280;43284;47.042;15.498;2023-03-13T00:09:17;97215.22;;;-0.53;79.69
57442;BME280;43284;47.042;15.498;2023-03-13T00:11:43;97214.41;;;-0.56;79.81
57442;BME280;43284;47.042;15.498;2023-03-13T00:14:10;97220.44;;;-0.67;79.25
57442;BME280;43284;47.042;15.498;2023-03-13T00:16:36;97222.13;;;-0.61;80.32
57442;BME280;43284;47.042;15.498;2023-03-13T00:19:04;97228.97;;;-0.66;80.19
57442;BME280;43284;47.042;15.498;2023-03-13T00:21:30;97220.41;;;-0.62;79.50
57442;BME280;43284;47.042;15.498;2023-03-13T00:23:58;97227.25;;;-0.63;79.03
57442;BME280;43284;47.042;15.498;2023-03-13T00:26:25;97228.16;;;-0.70;79.68
57442;BME280;43284;47.042;15.498;2023-03-13T00:28:52;97226.41;;;-0.65;79.94
57442;BME280;43284;47.042;15.498;2023-03-13T00:31:23;97227.28;;;-0.70;79.35
57442;BME280;43284;47.042;15.498;2023-03-13T00:33:51;97230.69;;;-0.65;80.32
57442;BME280;43284;47.042;15.498;2023-03-13T00:36:20;97222.16;;;-0.73;79.19
57442;BME280;43284;47.042;15.498;2023-03-13T00:38:47;97211.91;;;-0.73;79.94
57442;BME280;43284;47.042;15.498;2023-03-13T00:41:24;97212.72;;;-0.68;80.87
57442;BME280;43284;47.042;15.498;2023-03-13T00:43:50;97215.31;;;-0.71;79.84
57442;BME280;43284;47.042;15.498;2023-03-13T00:46:18;97211.03;;;-0.72;80.42
57442;BME280;43284;47.042;15.498;2023-03-13T00:48:45;97205.91;;;-0.69;80.19
57442;BME280;43284;47.042;15.498;2023-03-13T00:51:11;97213.56;;;-0.66;80.26
57442;BME280;43284;47.042;15.498;2023-03-13T00:53:37;97210.19;;;-0.76;79.61
57442;BME280;43284;47.042;15.498;2023-03-13T00:56:06;97209.31;;;-0.73;79.16
57442;BME280;43284;47.042;15.498;2023-03-13T00:58:35;97208.44;;;-0.72;79.21
57442;BME280;43284;47.042;15.498;2023-03-13T01:01:08;97207.63;;;-0.74;79.17
57442;BME280;43284;47.042;15.498;2023-03-13T01:03:34;97202.50;;;-0.74;80.97
57442;BME280;43284;47.042;15.498;2023-03-13T01:06:03;97209.34;;;-0.79;79.48
57442;BME280;43284;47.042;15.498;2023-03-13T01:08:30;97210.22;;;-0.87;80.28
57442;BME280;43284;47.042;15.498;2023-03-13T01:11:06;97205.06;;;-0.84;80.30
57442;BME280;43284;47.042;15.498;2023-03-13T01:13:32;97213.66;;;-0.83;81.87
57442;BME280;43284;47.042;15.498;2023-03-13T01:16:06;97200.81;;;-0.83;81.19
57442;BME280;43284;47.042;15.498;2023-03-13T01:18:34;97193.13;;;-0.83;80.96
57442;BME280;43284;47.042;15.498;2023-03-13T01:21:00;97189.69;;;-0.82;80.63
57442;BME280;43284;47.042;15.498;2023-03-13T01:23:27;97185.41;;;-0.81;80.75
57442;BME280;43284;47.042;15.498;2023-03-13T01:25:56;97193.97;;;-0.82;80.33
57442;BME280;43284;47.042;15.498;2023-03-13T01:28:23;97189.69;;;-0.82;79.98
57442;BME280;43284;47.042;15.498;2023-03-13T01:30:49;97182.81;;;-0.81;79.68
57442;BME280;43284;47.042;15.498;2023-03-13T01:33:16;97185.41;;;-0.81;79.22
57442;BME280;43284;47.042;15.498;2023-03-13T01:35:41;97187.13;;;-0.87;79.70
57442;BME280;43284;47.042;15.498;2023-03-13T01:38:07;97192.28;;;-0.91;80.11
57442;BME280;43284;47.042;15.498;2023-03-13T01:40:59;97194.84;;;-1.05;80.61
57442;BME280;43284;47.042;15.498;2023-03-13T01:43:30;97194.88;;;-1.04;80.85
57442;BME280;43284;47.042;15.498;2023-03-13T01:52:12;97178.63;;;-1.06;81.04
57442;BME280;43284;47.042;15.498;2023-03-13T01:54:32;97182.91;;;-1.05;81.64
57442;BME280;43284;47.042;15.498;2023-03-13T01:57:43;97179.50;;;-1.07;81.28
57442;BME280;43284;47.042;15.498;2023-03-13T01:59:54;97182.06;;;-1.08;82.00
57442;BME280;43284;47.042;15.498;2023-03-13T02:02:21;97177.78;;;-1.11;81.70
57442;BME280;43284;47.042;15.498;2023-03-13T02:04:51;97176.94;;;-1.11;81.61
57442;BME280;43284;47.042;15.498;2023-03-13T02:07:23;97178.63;;;-1.10;81.72
57442;BME280;43284;47.042;15.498;2023-03-13T02:09:52;97174.34;;;-1.10;81.53
57442;BME280;43284;47.042;15.498;2023-03-13T02:12:30;97176.06;;;-1.09;80.89
57442;BME280;43284;47.042;15.498;2023-03-13T02:14:58;97176.06;;;-1.10;81.21
57442;BME280;43284;47.042;15.498;2023-03-13T02:17:26;97176.94;;;-1.14;82.06
57442;BME280;43284;47.042;15.498;2023-03-13T02:19:52;97174.38;;;-1.14;82.64
57442;BME280;43284;47.042;15.498;2023-03-13T02:28:08;97167.56;;;-1.32;82.78
57442;BME280;43284;47.042;15.498;2023-03-13T02:30:37;97165.84;;;-1.30;83.05
57442;BME280;43284;47.042;15.498;2023-03-13T02:33:04;97152.19;;;-1.26;81.95
57442;BME280;43284;47.042;15.498;2023-03-13T02:35:30;97150.44;;;-1.27;81.47
57442;BME280;43284;47.042;15.498;2023-03-13T02:38:06;97153.91;;;-1.40;81.63
57442;BME280;43284;47.042;15.498;2023-03-13T02:40:39;97146.22;;;-1.40;82.06
57442;BME280;43284;47.042;15.498;2023-03-13T02:43:11;97155.63;;;-1.47;82.92
57442;BME280;43284;47.042;15.498;2023-03-13T02:45:39;97149.63;;;-1.45;83.58
57442;BME280;43284;47.042;15.498;2023-03-13T02:48:04;97147.09;;;-1.46;83.55
57442;BME280;43284;47.042;15.498;2023-03-13T02:50:30;97143.66;;;-1.43;83.12
57442;BME280;43284;47.042;15.498;2023-03-13T02:53:03;97130.84;;;-1.43;82.72
57442;BME280;43284;47.042;15.498;2023-03-13T02:55:48;97134.28;;;-1.51;82.18
57442;BME280;43284;47.042;15.498;2023-03-13T02:58:13;97149.66;;;-1.69;82.15
57442;BME280;43284;47.042;15.498;2023-03-13T03:00:39;97144.56;;;-1.66;84.22
57442;BME280;43284;47.042;15.498;2023-03-13T03:03:05;97149.69;;;-1.66;83.47
57442;BME280;43284;47.042;15.498;2023-03-13T03:05:30;97144.56;;;-1.66;83.62
57442;BME280;43284;47.042;15.498;2023-03-13T03:07:56;97154.81;;;-1.66;83.56
57442;BME280;43284;47.042;15.498;2023-03-13T03:10:21;97150.53;;;-1.66;83.90
57442;BME280;43284;47.042;15.498;2023-03-13T03:12:47;97154.78;;;-1.69;84.31
57442;BME280;43284;47.042;15.498;2023-03-13T03:15:12;97146.25;;;-1.71;84.57
57442;BME280;43284;47.042;15.498;2023-03-13T03:17:38;97142.84;;;-1.72;84.94
57442;BME280;43284;47.042;15.498;2023-03-13T03:20:04;97151.38;;;-1.67;84.60
57442;BME280;43284;47.042;15.498;2023-03-13T03:22:36;97136.84;;;-1.64;83.82
57442;BME280;43284;47.042;15.498;2023-03-13T03:25:03;97141.09;;;-1.62;84.12
57442;BME280;43284;47.042;15.498;2023-03-13T03:27:30;97132.59;;;-1.64;84.32
57442;BME280;43284;47.042;15.498;2023-03-13T03:29:56;97125.75;;;-1.68;83.53
57442;BME280;43284;47.042;15.498;2023-03-13T03:32:22;97138.56;;;-1.76;83.19
57442;BME280;43284;47.042;15.498;2023-03-13T03:34:48;97124.06;;;-1.77;84.45
57442;BME280;43284;47.042;15.498;2023-03-13T03:37:13;97124.91;;;-1.76;84.72
57442;BME280;43284;47.042;15.498;2023-03-13T03:39:39;97128.31;;;-1.79;84.75
57442;BME280;43284;47.042;15.498;2023-03-13T03:42:05;97126.59;;;-1.71;85.49
57442;BME280;43284;47.042;15.498;2023-03-13T03:44:30;97135.16;;;-1.72;84.09
57442;BME280;43284;47.042;15.498;2023-03-13T03:46:56;97124.91;;;-1.72;84.97
57442;BME280;43284;47.042;15.498;2023-03-13T03:49:21;97123.19;;;-1.71;84.52
57442;BME280;43284;47.042;15.498;2023-03-13T03:51:47;97124.91;;;-1.72;85.37
57442;BME280;43284;47.042;15.498;2023-03-13T03:54:13;97120.63;;;-1.77;84.47
57442;BME280;43284;47.042;15.498;2023-03-13T03:56:39;97124.88;;;-1.79;84.76
57442;BME280;43284;47.042;15.498;2023-03-13T03:59:05;97120.63;;;-1.76;84.28
57442;BME280;43284;47.042;15.498;2023-03-13T04:01:30;97130.88;;;-1.80;84.65
57442;BME280;43284;47.042;15.498;2023-03-13T04:03:56;97129.16;;;-1.80;84.63
57442;BME280;43284;47.042;15.498;2023-03-13T04:06:21;97134.31;;;-1.81;84.28
57442;BME280;43284;47.042;15.498;2023-03-13T04:08:47;97127.47;;;-1.82;84.38
57442;BME280;43284;47.042;15.498;2023-03-13T04:11:13;97124.03;;;-1.84;84.50
57442;BME280;43284;47.042;15.498;2023-03-13T04:13:38;97125.75;;;-1.85;85.08
57442;BME280;43284;47.042;15.498;2023-03-13T04:16:08;97119.78;;;-1.85;84.90
57442;BME280;43284;47.042;15.498;2023-03-13T04:18:34;97118.91;;;-1.86;85.08
57442;BME280;43284;47.042;15.498;2023-03-13T04:21:01;97117.22;;;-1.85;84.65
57442;BME280;43284;47.042;15.498;2023-03-13T04:23:27;97128.31;;;-1.88;84.23
57442;BME280;43284;47.042;15.498;2023-03-13T04:25:53;97122.34;;;-1.85;85.60
57442;BME280;43284;47.042;15.498;2023-03-13T04:28:18;97125.75;;;-1.93;85.17
57442;BME280;43284;47.042;15.498;2023-03-13T04:30:44;97136.00;;;-1.91;85.55
57442;BME280;43284;47.042;15.498;2023-03-13T04:33:09;97135.16;;;-1.89;86.23
57442;BME280;43284;47.042;15.498;2023-03-13T04:35:35;97137.72;;;-1.87;86.08
57442;BME280;43284;47.042;15.498;2023-03-13T04:38:01;97141.13;;;-1.87;85.83
57442;BME280;43284;47.042;15.498;2023-03-13T04:40:27;97142.81;;;-1.84;86.56
57442;BME280;43284;47.042;15.498;2023-03-13T04:42:53;97133.44;;;-1.85;85.65
57442;BME280;43284;47.042;15.498;2023-03-13T04:45:19;97139.41;;;-1.84;84.73
57442;BME280;43284;47.042;15.498;2023-03-13T04:47:47;97138.56;;;-1.87;84.13
57442;BME280;43284;47.042;15.498;2023-03-13T04:50:13;97134.28;;;-1.91;85.71
57442;BME280;43284;47.042;15.498;2023-03-13T04:52:39;97130.00;;;-1.99;85.25
57442;BME280;43284;47.042;15.498;2023-03-13T04:55:05;97144.53;;;-2.14;85.57
57442;BME280;43284;47.042;15.498;2023-03-13T04:57:30;97142.81;;;-2.15;87.30
57442;BME280;43284;47.042;15.498;2023-03-13T04:59:56;97137.72;;;-2.12;87.68
57442;BME280;43284;47.042;15.498;2023-03-13T05:02:22;97136.84;;;-2.09;87.18
57442;BME280;43284;47.042;15.498;2023-03-13T05:04:47;97117.22;;;-2.07;87.45
57442;BME280;43284;47.042;15.498;2023-03-13T05:07:13;97130.03;;;-2.05;87.25
57442;BME280;43284;47.042;15.498;2023-03-13T05:09:38;97120.63;;;-2.11;86.60
57442;BME280;43284;47.042;15.498;2023-03-13T05:12:04;97130.88;;;-2.05;87.35
57442;BME280;43284;47.042;15.498;2023-03-13T05:14:30;97120.66;;;-2.05;87.10
57442;BME280;43284;47.042;15.498;2023-03-13T05:16:56;97118.06;;;-2.02;87.30
57442;BME280;43284;47.042;15.498;2023-03-13T05:19:21;97123.22;;;-1.94;87.69
57442;BME280;43284;47.042;15.498;2023-03-13T05:21:47;97121.50;;;-1.94;87.50
57442;BME280;43284;47.042;15.498;2023-03-13T05:24:16;97121.47;;;-1.95;87.24
57442;BME280;43284;47.042;15.498;2023-03-13T05:26:41;97112.97;;;-1.90;88.00
57442;BME280;43284;47.042;15.498;2023-03-13T05:29:07;97109.53;;;-1.92;87.50
57442;BME280;43284;47.042;15.498;2023-03-13T05:31:32;97103.56;;;-2.00;87.10
57442;BME280;43284;47.042;15.498;2023-03-13T05:33:58;97112.09;;;-1.92;88.84
57442;BME280;43284;47.042;15.498;2023-03-13T05:36:24;97116.34;;;-1.91;87.97
57442;BME280;43284;47.042;15.498;2023-03-13T05:38:49;97114.66;;;-1.87;88.33
57442;BME280;43284;47.042;15.498;2023-03-13T05:41:15;97108.69;;;-1.84;88.32
57442;BME280;43284;47.042;15.498;2023-03-13T05:43:41;97115.53;;;-1.79;88.72
57442;BME280;43284;47.042;15.498;2023-03-13T05:46:06;97101.84;;;-1.78;88.36
57442;BME280;43284;47.042;15.498;2023-03-13T05:48:32;97107.81;;;-1.76;88.31
57442;BME280;43284;47.042;15.498;2023-03-13T05:50:58;97108.66;;;-1.69;88.66
57442;BME280;43284;47.042;15.498;2023-03-13T05:53:23;97111.22;;;-1.68;88.13
57442;BME280;43284;47.042;15.498;2023-03-13T05:55:49;97112.94;;;-1.68;87.56
57442;BME280;43284;47.042;15.498;2023-03-13T05:58:14;97112.94;;;-1.59;88.64
57442;BME280;43284;47.042;15.498;2023-03-13T06:00:40;97110.38;;;-1.59;87.79
57442;BME280;43284;47.042;15.498;2023-03-13T06:03:08;97114.63;;;-1.56;88.03
57442;BME280;43284;47.042;15.498;2023-03-13T06:05:34;97113.75;;;-1.54;87.98
57442;BME280;43284;47.042;15.498;2023-03-13T06:08:00;97104.38;;;-1.44;89.16
57442;BME280;43284;47.042;15.498;2023-03-13T06:10:27;97103.47;;;-1.37;88.99
57442;BME280;43284;47.042;15.498;2023-03-13T06:12:54;97106.00;;;-1.28;89.26
57442;BME280;43284;47.042;15.498;2023-03-13T06:15:20;97100.03;;;-1.23;88.32
57442;BME280;43284;47.042;15.498;2023-03-13T06:17:46;97108.53;;;-1.14;88.24
57442;BME280;43284;47.042;15.498;2023-03-13T06:20:12;97104.22;;;-1.06;87.72
57442;BME280;43284;47.042;15.498;2023-03-13T06:22:37;97099.06;;;-0.95;87.47
57442;BME280;43284;47.042;15.498;2023-03-13T06:25:03;97096.47;;;-0.87;86.63
57442;BME280;43284;47.042;15.498;2023-03-13T06:27:29;97100.69;;;-0.75;86.47
57442;BME280;43284;47.042;15.498;2023-03-13T06:29:57;97098.09;;;-0.68;86.02
57442;BME280;43284;47.042;15.498;2023-03-13T06:32:23;97097.19;;;-0.60;85.36
57442;BME280;43284;47.042;15.498;2023-03-13T06:34:48;97103.16;;;-0.54;84.11
57442;BME280;43284;47.042;15.498;2023-03-13T06:37:14;97098.78;;;-0.44;84.20
57442;BME280;43284;47.042;15.498;2023-03-13T06:39:40;97101.31;;;-0.36;84.23
57442;BME280;43284;47.042;15.498;2023-03-13T06:42:06;97102.97;;;-0.29;83.33
57442;BME280;43284;47.042;15.498;2023-03-13T06:44:31;97097.81;;;-0.25;83.05
57442;BME280;43284;47.042;15.498;2023-03-13T06:46:57;97099.50;;;-0.17;83.74
57442;BME280;43284;47.042;15.498;2023-03-13T06:49:23;97099.44;;;-0.10;83.76
57442;BME280;43284;47.042;15.498;2023-03-13T06:51:48;97098.50;;;-0.03;82.70
57442;BME280;43284;47.042;15.498;2023-03-13T06:54:14;97090.75;;;0.07;82.87
57442;BME280;43284;47.042;15.498;2023-03-13T06:56:40;97082.91;;;0.17;82.67
57442;BME280;43284;47.042;15.498;2023-03-13T06:59:05;97087.13;;;0.29;82.56
57442;BME280;43284;47.042;15.498;2023-03-13T07:01:31;97092.13;;;0.41;82.42
57442;BME280;43284;47.042;15.498;2023-03-13T07:03:57;97093.75;;;0.52;81.32
57442;BME280;43284;47.042;15.498;2023-03-13T07:06:22;97086.75;;;0.65;80.98
57442;BME280;43284;47.042;15.498;2023-03-13T07:08:48;97087.50;;;0.76;80.61
57442;BME280;43284;47.042;15.498;2023-03-13T07:11:14;97082.22;;;0.88;80.33
57442;BME280;43284;47.042;15.498;2023-03-13T07:13:40;97084.63;;;1.00;80.29
57442;BME280;43284;47.042;15.498;2023-03-13T07:16:08;97079.28;;;1.16;78.97
57442;BME280;43284;47.042;15.498;2023-03-13T07:18:34;97078.31;;;1.24;79.58
57442;BME280;43284;47.042;15.498;2023-03-13T07:21:02;97073.84;;;1.40;79.17
57442;BME280;43284;47.042;15.498;2023-03-13T07:23:32;97077.19;;;1.47;78.57
57442;BME280;43284;47.042;15.498;2023-03-13T07:26:04;97066.75;;;1.55;77.78
57442;BME280;43284;47.042;15.498;2023-03-13T07:28:31;97062.34;;;1.64;77.59
57442;BME280;43284;47.042;15.498;2023-03-13T07:31:20;97065.63;;;1.74;77.40
57442;BME280;43284;47.042;15.498;2023-03-13T07:33:46;97055.13;;;1.87;77.44
57442;BME280;43284;47.042;15.498;2023-03-13T07:36:14;97054.97;;;1.96;77.13
57442;BME280;43284;47.042;15.498;2023-03-13T07:38:40;97052.22;;;2.06;76.90
57442;BME280;43284;47.042;15.498;2023-03-13T07:41:07;97051.06;;;2.23;76.00
57442;BME280;43284;47.042;15.498;2023-03-13T07:43:33;97052.63;;;2.33;76.25
57442;BME280;43284;47.042;15.498;2023-03-13T07:46:01;97043.03;;;2.41;76.20
57442;BME280;43284;47.042;15.498;2023-03-13T07:48:35;97044.38;;;2.61;76.68
57442;BME280;43284;47.042;15.498;2023-03-13T07:51:02;97043.16;;;2.79;75.18
57442;BME280;43284;47.042;15.498;2023-03-13T07:53:28;97040.28;;;2.94;75.23
57442;BME280;43284;47.042;15.498;2023-03-13T07:56:06;97039.84;;;3.16;73.88
57442;BME280;43284;47.042;15.498;2023-03-13T07:58:34;97031.19;;;3.18;73.48
57442;BME280;43284;47.042;15.498;2023-03-13T08:01:06;97019.53;;;3.39;74.59
57442;BME280;43284;47.042;15.498;2023-03-13T08:03:32;97014.06;;;3.51;72.46
57442;BME280;43284;47.042;15.498;2023-03-13T08:06:02;97022.59;;;3.57;71.26
57442;BME280;43284;47.042;15.498;2023-03-13T08:08:29;97023.22;;;3.66;72.08
57442;BME280;43284;47.042;15.498;2023-03-13T08:11:06;97026.47;;;3.75;71.63
57442;BME280;43284;47.042;15.498;2023-03-13T08:13:32;97013.41;;;3.81;70.91
57442;BME280;43284;47.042;15.498;2023-03-13T08:16:21;97014.28;;;3.80;70.58
57442;BME280;43284;47.042;15.498;2023-03-13T08:18:50;97011.66;;;3.81;69.85
57442;BME280;43284;47.042;15.498;2023-03-13T08:21:25;97018.22;;;3.95;69.32
57442;BME280;43284;47.042;15.498;2023-03-13T08:23:53;97017.28;;;3.99;69.91
57442;BME280;43284;47.042;15.498;2023-03-13T08:26:23;97004.22;;;4.03;69.24
57442;BME280;43284;47.042;15.498;2023-03-13T08:28:57;96999.91;;;4.02;69.32
57442;BME280;43284;47.042;15.498;2023-03-13T08:31:25;97008.44;;;4.07;68.46
57442;BME280;43284;47.042;15.498;2023-03-13T08:33:52;97003.94;;;4.14;69.20
57442;BME280;43284;47.042;15.498;2023-03-13T08:36:20;97012.50;;;4.18;68.82
57442;BME280;43284;47.042;15.498;2023-03-13T08:38:48;97011.41;;;4.26;69.40
57442;BME280;43284;47.042;15.498;2023-03-13T08:41:16;97010.47;;;4.29;68.50
57442;BME280;43284;47.042;15.498;2023-03-13T08:43:45;97014.63;;;4.34;68.30
57442;BME280;43284;47.042;15.498;2023-03-13T08:46:12;97015.31;;;4.41;67.88
57442;BME280;43284;47.042;15.498;2023-03-13T08:48:38;97016.81;;;4.50;67.35
57442;BME280;43284;47.042;15.498;2023-03-13T08:51:07;97008.84;;;4.58;67.25
57442;BME280;43284;47.042;15.498;2023-03-13T08:53:33;97013.78;;;4.65;67.38
57442;BME280;43284;47.042;15.498;2023-03-13T08:56:00;97006.78;;;4.70;66.96
57442;BME280;43284;47.042;15.498;2023-03-13T08:58:26;97003.31;;;4.70;66.69
57442;BME280;43284;47.042;15.498;2023-03-13T09:00:52;97009.00;;;4.83;67.49
57442;BME280;43284;47.042;15.498;2023-03-13T09:03:18;97014.00;;;4.89;66.10
57442;BME280;43284;47.042;15.498;2023-03-13T09:05:43;96996.41;;;5.00;66.56
57442;BME280;43284;47.042;15.498;2023-03-13T09:08:13;96984.72;;;5.16;66.66
57442;BME280;43284;47.042;15.498;2023-03-13T09:10:39;96999.38;;;5.18;64.95
57442;BME280;43284;47.042;15.498;2023-03-13T09:13:05;96989.06;;;5.16;65.33
57442;BME280;43284;47.042;15.498;2023-03-13T09:15:31;96997.25;;;5.30;65.92
57442;BME280;43284;47.042;15.498;2023-03-13T09:17:56;97000.28;;;5.45;65.50
57442;BME280;43284;47.042;15.498;2023-03-13T09:20:22;96996.63;;;5.50;64.51
57442;BME280;43284;47.042;15.498;2023-03-13T09:22:48;96979.66;;;5.68;65.42
57442;BME280;43284;47.042;15.498;2023-03-13T09:25:14;96983.94;;;5.69;62.58
57442;BME280;43284;47.042;15.498;2023-03-13T09:27:40;96977.59;;;5.80;64.09
57442;BME280;43284;47.042;15.498;2023-03-13T09:30:06;96971.28;;;5.87;61.66
57442;BME280;43284;47.042;15.498;2023-03-13T09:32:32;96967.38;;;6.27;61.37
57442;BME280;43284;47.042;15.498;2023-03-13T09:34:58;96953.22;;;6.35;60.79
57442;BME280;43284;47.042;15.498;2023-03-13T09:37:24;96952.47;;;6.57;61.35
57442;BME280;43284;47.042;15.498;2023-03-13T09:39:50;96952.03;;;6.69;59.24
57442;BME280;43284;47.042;15.498;2023-03-13T09:42:49;96952.13;;;6.66;57.89
57442;BME280;43284;47.042;15.498;2023-03-13T09:45:31;96943.88;;;6.55;56.59
57442;BME280;43284;47.042;15.498;2023-03-13T09:48:07;96948.50;;;6.47;56.64
57442;BME280;43284;47.042;15.498;2023-03-13T09:50:44;96932.88;;;6.48;57.23
57442;BME280;43284;47.042;15.498;2023-03-13T09:53:16;96925.53;;;6.59;57.55
57442;BME280;43284;47.042;15.498;2023-03-13T09:55:44;96931.63;;;6.82;56.06
57442;BME280;43284;47.042;15.498;2023-03-13T09:58:16;96928.41;;;6.99;56.02
57442;BME280;43284;47.042;15.498;2023-03-13T10:00:53;96933.97;;;7.56;56.44
57442;BME280;43284;47.042;15.498;2023-03-13T10:06:39;96930.06;;;7.68;55.59
57442;BME280;43284;47.042;15.498;2023-03-13T10:09:19;96927.75;;;8.02;55.44
57442;BME280;43284;47.042;15.498;2023-03-13T10:11:53;96923.72;;;8.16;54.68
57442;BME280;43284;47.042;15.498;2023-03-13T10:14:29;96924.03;;;8.49;54.20
57442;BME280;43284;47.042;15.498;2023-03-13T10:17:41;96920.03;;;8.61;54.58
57442;BME280;43284;47.042;15.498;2023-03-13T10:19:55;96905.41;;;8.38;52.70
57442;BME280;43284;47.042;15.498;2023-03-13T10:22:26;96913.22;;;8.38;52.84
57442;BME280;43284;47.042;15.498;2023-03-13T10:25:02;96907.66;;;8.66;54.02
57442;BME280;43284;47.042;15.498;2023-03-13T10:27:29;96896.38;;;8.65;53.52
57442;BME280;43284;47.042;15.498;2023-03-13T10:29:54;96897.72;;;8.74;53.38
57442;BME280;43284;47.042;15.498;2023-03-13T10:32:20;96899.88;;;9.21;50.70
57442;BME280;43284;47.042;15.498;2023-03-13T10:34:55;96892.16;;;9.01;50.74
57442;BME280;43284;47.042;15.498;2023-03-13T10:39:53;96881.19;;;9.31;51.55
57442;BME280;43284;47.042;15.498;2023-03-13T10:42:34;96877.00;;;9.45;52.09
57442;BME280;43284;47.042;15.498;2023-03-13T10:45:05;96877.31;;;9.57;51.03
57442;BME280;43284;47.042;15.498;2023-03-13T10:47:33;96870.75;;;9.31;49.78
57442;BME280;43284;47.042;15.498;2023-03-13T10:50:00;96857.66;;;9.32;50.38
57442;BME280;43284;47.042;15.498;2023-03-13T10:52:49;96836.25;;;9.60;51.05
57442;BME280;43284;47.042;15.498;2023-03-13T10:55:21;96840.06;;;10.05;52.11
57442;BME280;43284;47.042;15.498;2023-03-13T10:57:59;96829.09;;;9.81;50.26
57442;BME280;43284;47.042;15.498;2023-03-13T11:00:36;96826.22;;;10.03;49.81
57442;BME280;43284;47.042;15.498;2023-03-13T11:03:22;96809.72;;;10.03;49.16
57442;BME280;43284;47.042;15.498;2023-03-13T11:05:59;96818.56;;;10.00;50.29
57442;BME280;43284;47.042;15.498;2023-03-13T11:08:27;96814.19;;;10.34;49.23
57442;BME280;43284;47.042;15.498;2023-03-13T11:11:00;96804.44;;;10.54;48.75
57442;BME280;43284;47.042;15.498;2023-03-13T11:13:33;96814.16;;;10.83;49.67
57442;BME280;43284;47.042;15.498;2023-03-13T11:16:12;96819.72;;;10.77;47.87
57442;BME280;43284;47.042;15.498;2023-03-13T11:21:48;96834.94;;;11.02;47.54
57442;BME280;43284;47.042;15.498;2023-03-13T11:25:27;96829.59;;;11.20;48.13
57442;BME280;43284;47.042;15.498;2023-03-13T11:27:30;96826.22;;;11.18;46.96
57442;BME280;43284;47.042;15.498;2023-03-13T11:32:50;96810.22;;;11.38;46.98
57442;BME280;43284;47.042;15.498;2023-03-13T11:35:48;96805.44;;;11.14;46.73
57442;BME280;43284;47.042;15.498;2023-03-13T11:38:23;96802.44;;;11.06;47.36
57442;BME280;43284;47.042;15.498;2023-03-13T11:49:45;96784.28;;;11.94;45.79
57442;BME280;43284;47.042;15.498;2023-03-13T11:57:24;96772.56;;;11.85;45.20
57442;BME280;43284;47.042;15.498;2023-03-13T12:00:19;96765.06;;;11.79;46.31
57442;BME280;43284;47.042;15.498;2023-03-13T12:03:15;96764.34;;;11.91;46.44
57442;BME280;43284;47.042;15.498;2023-03-13T12:05:46;96760.25;;;12.02;44.99
57442;BME280;43284;47.042;15.498;2023-03-13T12:08:27;96743.88;;;12.27;45.71
57442;BME280;43284;47.042;15.498;2023-03-13T12:13:39;96736.13;;;12.52;44.88
57442;BME280;43284;47.042;15.498;2023-03-13T12:16:20;96735.06;;;12.69;44.40
57442;BME280;43284;47.042;15.498;2023-03-13T12:18:48;96732.28;;;12.58;44.46
57442;BME280;43284;47.042;15.498;2023-03-13T12:21:36;96723.31;;;12.48;43.85
57442;BME280;43284;47.042;15.498;2023-03-13T12:27:00;96726.75;;;12.90;43.37
57442;BME280;43284;47.042;15.498;2023-03-13T12:32:33;96710.22;;;13.02;43.50
57442;BME280;43284;47.042;15.498;2023-03-13T12:35:27;96710.16;;;13.16;42.21
57442;BME280;43284;47.042;15.498;2023-03-13T12:38:23;96704.47;;;13.23;44.03
57442;BME280;43284;47.042;15.498;2023-03-13T12:40:55;96704.47;;;13.50;42.20
57442;BME280;43284;47.042;15.498;2023-03-13T12:43:30;96698.34;;;13.62;41.88
57442;BME280;43284;47.042;15.498;2023-03-13T13:00:29;96701.09;;;13.60;41.71
57442;BME280;43284;47.042;15.498;2023-03-13T13:06:12;96699.59;;;13.31;41.63
57442;BME280;43284;47.042;15.498;2023-03-13T13:11:39;96653.91;;;13.97;40.90
57442;BME280;43284;47.042;15.498;2023-03-13T13:16:47;96645.44;;;14.55;40.91
57442;BME280;43284;47.042;15.498;2023-03-13T13:25:31;96641.44;;;14.73;40.93
57442;BME280;43284;47.042;15.498;2023-03-13T13:30:43;96625.28;;;14.67;40.22
57442;BME280;43284;47.042;15.498;2023-03-13T13:38:36;96625.34;;;15.13;38.91
57442;BME280;43284;47.042;15.498;2023-03-13T13:43:37;96625.34;;;15.13;38.12
57442;BME280;43284;47.042;15.498;2023-03-13T13:46:23;96617.91;;;15.07;39.34
57442;BME280;43284;47.042;15.498;2023-03-13T13:49:05;96608.31;;;15.06;40.11
57442;BME280;43284;47.042;15.498;2023-03-13T13:51:36;96606.66;;;15.16;39.91
57442;BME280;43284;47.042;15.498;2023-03-13T13:57:00;96599.19;;;14.99;39.45
57442;BME280;43284;47.042;15.498;2023-03-13T13:59:39;96601.56;;;14.91;39.31
57442;BME280;43284;47.042;15.498;2023-03-13T14:10:20;96602.50;;;14.30;40.42
57442;BME280;43284;47.042;15.498;2023-03-13T14:12:56;96604.88;;;14.33;40.94
57442;BME280;43284;47.042;15.498;2023-03-13T14:15:25;96597.63;;;14.37;40.64
57442;BME280;43284;47.042;15.498;2023-03-13T14:17:53;96591.00;;;14.31;40.23
57442;BME280;43284;47.042;15.498;2023-03-13T14:20:29;96585.59;;;14.21;40.51
57442;BME280;43284;47.042;15.498;2023-03-13T14:23:01;96580.22;;;14.23;40.97
57442;BME280;43284;47.042;15.498;2023-03-13T14:25:46;96571.66;;;14.08;41.71
57442;BME280;43284;47.042;15.498;2023-03-13T14:28:26;96574.72;;;14.02;41.85
57442;BME280;43284;47.042;15.498;2023-03-13T14:30:55;96567.78;;;14.01;41.53
57442;BME280;43284;47.042;15.498;2023-03-13T14:33:23;96562.53;;;14.01;41.73
57442;BME280;43284;47.042;15.498;2023-03-13T14:35:49;96548.88;;;13.96;41.36
57442;BME280;43284;47.042;15.498;2023-03-13T14:40:42;96537.41;;;13.97;42.15
57442;BME280;43284;47.042;15.498;2023-03-13T14:43:22;96542.47;;;14.00;42.08
57442;BME280;43284;47.042;15.498;2023-03-13T14:45:50;96533.03;;;13.97;43.14